Time;durP1;ratioP1;P1;durP2;ratioP2;P2;SDS_P1;SDS_P2;PMS_P1;PMS_P2;Temp;Humidity;BMP_temperature;BMP_pressure;BME280_temperature;BME280_humidity;BME280_pressure;Samples;Min_cycle;Max_cycle;Signal;HPM_P1;HPM_P2
2023/03/03 00:01:29;;;;;;;44.03;35.90;;;;;;;0.09;100.00;102249.78;4952834;28;20070;-81
2023/03/03 00:03:56;;;;;;;45.17;35.30;;;;;;;0.14;100.00;102252.13;4922255;28;20414;-80
2023/03/03 00:06:21;;;;;;;44.20;35.87;;;;;;;0.16;100.00;102260.84;4970319;28;20302;-80
2023/03/03 00:08:46;;;;;;;45.17;35.47;;;;;;;0.16;100.00;102259.06;4928640;28;20289;-88
2023/03/03 00:11:12;;;;;;;45.00;34.50;;;;;;;0.19;100.00;102267.78;4974080;28;20066;-88
2023/03/03 00:13:49;;;;;;;45.60;35.10;;;;;;;0.21;100.00;102272.06;4966643;28;20111;-89
2023/03/03 00:16:36;;;;;;;46.17;35.13;;;;;;;0.25;100.00;102275.38;4969349;28;20292;-89
2023/03/03 00:19:01;;;;;;;44.60;34.97;;;;;;;0.30;100.00;102273.19;4968807;28;22194;-88
2023/03/03 00:21:38;;;;;;;44.90;34.63;;;;;;;0.32;100.00;102279.28;4973769;28;20302;-88
2023/03/03 00:24:04;;;;;;;45.33;34.67;;;;;;;0.39;100.00;102283.22;4973179;28;20047;-87
2023/03/03 00:26:40;;;;;;;45.10;35.17;;;;;;;0.44;100.00;102281.06;4971411;28;20377;-88
2023/03/03 00:29:34;;;;;;;42.27;33.10;;;;;;;0.45;100.00;102277.44;4971717;28;20065;-88
2023/03/03 00:32:09;;;;;;;46.00;33.67;;;;;;;0.43;100.00;102274.03;4967665;28;20849;-88
2023/03/03 00:34:35;;;;;;;42.27;32.23;;;;;;;0.53;100.00;102281.38;4962460;28;20373;-88
2023/03/03 00:37:00;;;;;;;42.00;32.57;;;;;;;0.50;100.00;102279.78;4942701;28;21242;-87
2023/03/03 00:39:36;;;;;;;41.23;32.40;;;;;;;0.53;100.00;102284.91;4963915;28;20420;-81
2023/03/03 00:42:14;;;;;;;40.33;31.93;;;;;;;0.51;100.00;102281.50;4936657;28;20031;-81
2023/03/03 00:44:45;;;;;;;40.70;30.73;;;;;;;0.57;100.00;102285.53;4970841;28;20309;-81
2023/03/03 00:47:21;;;;;;;41.70;31.90;;;;;;;0.58;100.00;102281.91;4949385;28;20298;-81
2023/03/03 00:49:47;;;;;;;39.33;30.77;;;;;;;0.59;100.00;102278.28;4971667;28;20328;-81
2023/03/03 00:52:18;;;;;;;40.20;30.87;;;;;;;0.60;100.00;102274.63;4939941;28;20320;-81
2023/03/03 00:54:44;;;;;;;40.10;30.77;;;;;;;0.66;100.00;102274.19;4971648;28;20053;-81
2023/03/03 00:57:13;;;;;;;42.97;32.40;;;;;;;0.66;100.00;102280.38;4951226;28;20301;-81
2023/03/03 00:59:38;;;;;;;41.00;31.50;;;;;;;0.71;100.00;102277.38;4968104;28;20043;-81
2023/03/03 01:02:04;;;;;;;40.63;32.13;;;;;;;0.66;100.00;102287.53;4924111;28;20401;-88
2023/03/03 01:04:30;;;;;;;43.30;33.23;;;;;;;0.64;100.00;102282.31;4961070;28;20041;-88
2023/03/03 01:06:55;;;;;;;43.90;34.17;;;;;;;0.64;100.00;102292.09;4948261;28;20462;-88
2023/03/03 01:09:21;;;;;;;43.40;33.03;;;;;;;0.59;100.00;102287.13;4965694;28;20050;-88
2023/03/03 01:11:47;;;;;;;40.40;32.00;;;;;;;0.60;100.00;102287.97;4945672;28;20043;-87
2023/03/03 01:14:12;;;;;;;41.67;32.67;;;;;;;0.62;100.00;102294.06;4968426;28;20667;-88
2023/03/03 01:16:37;;;;;;;40.43;31.33;;;;;;;0.57;100.00;102290.84;4935129;28;20081;-89
2023/03/03 01:19:03;;;;;;;40.23;30.90;;;;;;;0.56;100.00;102305.16;4915696;28;20138;-81
2023/03/03 01:21:28;;;;;;;40.63;31.23;;;;;;;0.54;100.00;102299.94;4953229;28;20056;-81
2023/03/03 01:23:54;;;;;;;37.53;30.07;;;;;;;0.53;100.00;102300.03;4970532;28;20050;-80
2023/03/03 01:26:19;;;;;;;37.50;29.10;;;;;;;0.46;100.00;102292.50;4926140;28;20038;-81
2023/03/03 01:28:44;;;;;;;38.13;30.03;;;;;;;0.43;100.00;102297.19;4938393;28;20086;-81
2023/03/03 01:31:11;;;;;;;37.67;28.77;;;;;;;0.42;100.00;102307.00;4951990;28;20407;-80
2023/03/03 01:33:36;;;;;;;37.90;28.60;;;;;;;0.37;100.00;102306.47;4971071;28;20047;-81
2023/03/03 01:36:02;;;;;;;35.63;28.13;;;;;;;0.39;100.00;102301.88;4937660;28;20872;-89
2023/03/03 01:38:28;;;;;;;36.57;27.97;;;;;;;0.37;100.00;102305.59;4945962;28;20058;-89
2023/03/03 01:40:58;;;;;;;36.83;28.10;;;;;;;0.23;100.00;102299.47;4965870;28;20035;-88
2023/03/03 01:43:29;;;;;;;35.87;28.63;;;;;;;0.24;100.00;102305.63;4955540;28;20305;-88
2023/03/03 01:45:55;;;;;;;34.40;26.53;;;;;;;0.22;100.00;102308.41;4960248;28;20281;-88
2023/03/03 01:48:28;;;;;;;37.20;27.93;;;;;;;0.27;100.00;102314.28;4964441;28;20290;-88
2023/03/03 01:50:59;;;;;;;35.43;27.33;;;;;;;0.21;100.00;102309.38;4977045;28;20402;-88
2023/03/03 01:53:46;;;;;;;34.63;27.23;;;;;;;0.21;100.00;102313.84;4985245;28;20377;-88
2023/03/03 01:56:12;;;;;;;35.70;27.53;;;;;;;0.09;100.00;102316.41;4980735;28;20289;-88
2023/03/03 01:58:43;;;;;;;36.60;27.57;;;;;;;0.05;100.00;102312.25;4982203;28;20286;-88
2023/03/03 02:01:13;;;;;;;38.60;28.33;;;;;;;0.15;100.00;102315.13;4977567;28;20043;-88
2023/03/03 02:03:39;;;;;;;36.30;27.90;;;;;;;0.11;100.00;102311.84;4979127;28;21272;-88
2023/03/03 02:06:12;;;;;;;38.43;29.33;;;;;;;0.09;100.00;102313.75;4983535;28;20302;-80
2023/03/03 02:08:59;;;;;;;39.20;28.43;;;;;;;0.15;100.00;102316.00;4982285;28;20461;-81
2023/03/03 02:11:27;;;;;;;36.57;28.23;;;;;;;0.21;100.00;102317.38;4984441;28;20336;-81
2023/03/03 02:13:52;;;;;;;37.17;27.67;;;;;;;0.13;100.00;102309.91;4983064;28;20293;-81
2023/03/03 02:16:18;;;;;;;35.47;28.17;;;;;;;0.13;100.00;102315.22;4966873;28;20311;-81
2023/03/03 02:18:43;;;;;;;36.30;27.57;;;;;;;0.08;100.00;102316.50;4984198;28;20046;-81
2023/03/03 02:21:11;;;;;;;37.43;28.40;;;;;;;0.01;100.00;102315.25;4965344;28;20045;-81
2023/03/03 02:23:50;;;;;;;37.87;28.30;;;;;;;-0.02;100.00;102317.16;4982099;28;20043;-80
2023/03/03 02:26:17;;;;;;;36.73;27.77;;;;;;;-0.02;100.00;102311.81;4981960;28;20297;-81
2023/03/03 02:28:43;;;;;;;39.57;29.53;;;;;;;0.05;100.00;102317.56;4983268;28;20372;-81
2023/03/03 02:31:15;;;;;;;37.57;29.40;;;;;;;-0.05;100.00;102321.84;4964913;28;20393;-81
2023/03/03 02:33:42;;;;;;;38.80;29.43;;;;;;;0.06;100.00;102321.97;4963976;28;20113;-81
2023/03/03 02:36:29;;;;;;;36.50;28.67;;;;;;;0.10;100.00;102312.78;4982156;28;20301;-89
2023/03/03 02:39:18;;;;;;;36.27;28.67;;;;;;;0.09;100.00;102311.06;4964431;28;20293;-88
2023/03/03 02:41:47;;;;;;;37.63;28.40;;;;;;;0.07;100.00;102310.34;4982891;28;20309;-89
2023/03/03 02:44:16;;;;;;;35.73;27.30;;;;;;;0.06;100.00;102308.63;4982254;28;20766;-88
2023/03/03 02:46:44;;;;;;;39.70;29.53;;;;;;;0.10;100.00;102298.63;4984179;28;20292;-89
2023/03/03 02:49:11;;;;;;;36.17;26.80;;;;;;;0.18;100.00;102304.25;4978742;28;20304;-89
2023/03/03 02:51:37;;;;;;;37.97;27.53;;;;;;;0.13;100.00;102301.91;4978161;28;20367;-89
2023/03/03 02:54:03;;;;;;;38.30;28.27;;;;;;;0.21;100.00;102304.03;4967882;28;20285;-88
2023/03/03 02:56:29;;;;;;;36.80;27.80;;;;;;;0.15;100.00;102296.47;4981961;28;20049;-89
2023/03/03 02:58:55;;;;;;;35.60;27.17;;;;;;;0.25;100.00;102302.88;4977476;28;20294;-89
2023/03/03 03:01:20;;;;;;;37.30;28.57;;;;;;;0.22;100.00;102303.09;4967374;28;20491;-89
2023/03/03 03:03:46;;;;;;;37.73;28.13;;;;;;;0.29;100.00;102299.00;4978800;28;20038;-89
2023/03/03 03:06:11;;;;;;;37.77;28.50;;;;;;;0.25;100.00;102307.34;4945978;28;20045;-89
2023/03/03 03:08:36;;;;;;;36.37;28.03;;;;;;;0.29;100.00;102299.00;4950195;28;20525;-88
2023/03/03 03:11:04;;;;;;;34.80;26.37;;;;;;;0.15;100.00;102312.44;4961576;28;20035;-89
2023/03/03 03:13:30;;;;;;;34.90;26.27;;;;;;;0.22;100.00;102307.53;4982060;28;20488;-81
2023/03/03 03:15:56;;;;;;;33.20;24.90;;;;;;;0.15;100.00;102316.00;4982014;28;20399;-81
2023/03/03 03:18:22;;;;;;;32.53;25.40;;;;;;;0.08;100.00;102311.19;4984030;28;21053;-81
2023/03/03 03:20:47;;;;;;;33.03;24.87;;;;;;;0.16;100.00;102319.50;4965554;28;20145;-81
2023/03/03 03:23:13;;;;;;;33.20;25.83;;;;;;;0.04;100.00;102323.88;4983797;28;20308;-81
2023/03/03 03:25:44;;;;;;;33.10;24.87;;;;;;;-0.02;100.00;102321.63;4965143;28;20046;-81
2023/03/03 03:28:11;;;;;;;31.80;24.23;;;;;;;-0.09;100.00;102326.53;4983460;28;20045;-81
2023/03/03 03:30:36;;;;;;;31.30;24.30;;;;;;;-0.08;100.00;102324.72;4983791;28;21340;-81
2023/03/03 03:33:02;;;;;;;31.03;23.57;;;;;;;-0.07;100.00;102326.41;4967767;28;20368;-81
2023/03/03 03:35:27;;;;;;;31.13;23.80;;;;;;;-0.12;100.00;102326.75;4949709;28;20045;-81
2023/03/03 03:37:53;;;;;;;31.33;24.03;;;;;;;-0.11;100.00;102322.25;4983458;28;20038;-81
2023/03/03 03:40:18;;;;;;;32.37;25.40;;;;;;;-0.12;100.00;102321.41;4967306;28;20430;-81
2023/03/03 03:42:44;;;;;;;33.03;24.87;;;;;;;-0.18;100.00;102319.16;4949595;28;20038;-81
2023/03/03 03:45:14;;;;;;;32.63;24.97;;;;;;;-0.12;100.00;102323.22;4985164;28;20405;-88
2023/03/03 03:47:40;;;;;;;33.80;25.93;;;;;;;-0.13;100.00;102318.88;4982331;28;20043;-88
2023/03/03 03:50:07;;;;;;;33.47;25.60;;;;;;;-0.14;100.00;102322.47;4980644;28;20384;-88
2023/03/03 03:52:32;;;;;;;33.03;24.70;;;;;;;-0.14;100.00;102317.16;4984810;28;22248;-88
2023/03/03 03:54:58;;;;;;;32.87;25.03;;;;;;;-0.08;100.00;102322.03;4953648;28;20274;-88
2023/03/03 03:57:23;;;;;;;35.57;26.93;;;;;;;-0.11;100.00;102323.13;4965687;28;20105;-88
2023/03/03 03:59:49;;;;;;;34.67;26.20;;;;;;;-0.11;100.00;102327.59;4981687;28;20052;-88
2023/03/03 04:02:15;;;;;;;33.50;25.50;;;;;;;-0.09;100.00;102325.69;4982500;28;20064;-81
2023/03/03 04:04:40;;;;;;;34.30;26.80;;;;;;;-0.10;100.00;102324.81;4967095;28;20300;-81
2023/03/03 04:07:05;;;;;;;35.03;26.83;;;;;;;-0.05;100.00;102332.50;4947509;28;20057;-81
2023/03/03 04:09:31;;;;;;;33.40;25.60;;;;;;;-0.08;100.00;102330.91;4952782;28;20558;-82
2023/03/03 04:11:56;;;;;;;33.50;25.50;;;;;;;-0.06;100.00;102336.13;4938346;28;20030;-81
2023/03/03 04:14:21;;;;;;;34.50;25.20;;;;;;;-0.07;100.00;102340.63;4987682;28;20311;-81
2023/03/03 04:16:47;;;;;;;32.60;25.13;;;;;;;-0.05;100.00;102332.50;4984553;28;20049;-81
2023/03/03 04:19:12;;;;;;;34.00;26.30;;;;;;;-0.05;100.00;102328.03;4952137;28;20069;-81
2023/03/03 04:21:38;;;;;;;33.43;24.80;;;;;;;0.03;100.00;102327.50;4969735;28;20062;-81
2023/03/03 04:24:04;;;;;;;33.57;25.73;;;;;;;-0.02;100.00;102334.97;4971012;28;20066;-81
2023/03/03 04:26:30;;;;;;;33.40;25.10;;;;;;;0.01;100.00;102333.91;4969907;28;20173;-81
2023/03/03 04:28:56;;;;;;;33.10;24.57;;;;;;;-0.05;100.00;102325.38;4952604;28;20386;-81
2023/03/03 04:31:22;;;;;;;33.53;24.90;;;;;;;0.05;100.00;102332.72;4968279;28;20288;-81
2023/03/03 04:33:47;;;;;;;33.90;25.57;;;;;;;0.01;100.00;102333.91;4990483;28;20046;-81
2023/03/03 04:36:13;;;;;;;35.47;25.20;;;;;;;0.03;100.00;102332.84;4987095;28;20180;-81
2023/03/03 04:38:38;;;;;;;34.63;24.97;;;;;;;0.04;100.00;102329.22;4985394;28;20041;-81
2023/03/03 04:41:04;;;;;;;33.80;24.73;;;;;;;0.08;100.00;102332.50;4952287;28;20498;-81
2023/03/03 04:43:29;;;;;;;33.80;24.60;;;;;;;0.09;100.00;102328.88;4988662;28;20035;-81
2023/03/03 04:45:54;;;;;;;34.73;23.97;;;;;;;0.08;100.00;102337.84;4990139;28;20117;-81
2023/03/03 04:48:20;;;;;;;32.23;23.03;;;;;;;0.05;100.00;102341.56;4955755;28;20042;-81
2023/03/03 04:50:45;;;;;;;34.27;24.23;;;;;;;0.14;100.00;102332.94;4951576;28;20053;-81
2023/03/03 04:53:10;;;;;;;34.03;24.30;;;;;;;0.06;100.00;102337.94;4953397;28;20169;-81
2023/03/03 04:55:36;;;;;;;32.63;23.67;;;;;;;0.08;100.00;102333.38;4955872;28;20667;-81
2023/03/03 04:58:03;;;;;;;34.03;24.17;;;;;;;0.07;100.00;102337.00;4987226;28;20073;-81
2023/03/03 05:00:29;;;;;;;33.40;23.63;;;;;;;0.09;100.00;102340.38;4970853;28;20327;-81
2023/03/03 05:02:54;;;;;;;33.20;23.57;;;;;;;0.11;100.00;102343.81;4953294;28;20293;-81
2023/03/03 05:05:19;;;;;;;32.67;23.03;;;;;;;0.11;100.00;102338.50;4955169;28;20038;-81
2023/03/03 05:07:45;;;;;;;34.40;24.17;;;;;;;0.11;100.00;102338.50;4985672;28;20097;-81
2023/03/03 05:10:10;;;;;;;34.80;24.13;;;;;;;0.24;100.00;102343.81;4953208;28;20046;-88
2023/03/03 05:12:36;;;;;;;34.63;24.90;;;;;;;0.19;100.00;102345.97;4987804;28;20069;-88
2023/03/03 05:15:01;;;;;;;34.60;23.97;;;;;;;0.23;100.00;102346.56;4950584;28;20065;-88
2023/03/03 05:17:27;;;;;;;33.40;23.77;;;;;;;0.25;100.00;102350.00;4982257;28;20096;-88
2023/03/03 05:19:53;;;;;;;34.77;23.87;;;;;;;0.26;100.00;102344.56;4978400;28;20042;-88
2023/03/03 05:22:18;;;;;;;34.77;24.50;;;;;;;0.26;100.00;102344.56;4980715;28;20030;-88
2023/03/03 05:24:47;;;;;;;34.77;24.30;;;;;;;0.29;100.00;102346.16;4982150;28;20042;-88
2023/03/03 05:27:13;;;;;;;35.23;24.77;;;;;;;0.37;100.00;102350.94;4983431;28;20045;-88
2023/03/03 05:29:38;;;;;;;34.23;23.73;;;;;;;0.47;100.00;102350.19;4979623;28;20316;-88
2023/03/03 05:32:04;;;;;;;35.13;24.53;;;;;;;0.37;100.00;102348.28;4981809;28;20975;-88
2023/03/03 05:34:29;;;;;;;35.17;24.90;;;;;;;0.40;100.00;102348.06;4967276;28;20044;-88
2023/03/03 05:36:55;;;;;;;36.03;24.10;;;;;;;0.42;100.00;102348.81;4982988;28;20041;-88
2023/03/03 05:39:20;;;;;;;36.57;24.57;;;;;;;0.47;100.00;102354.69;4987834;28;20814;-88
2023/03/03 05:41:45;;;;;;;35.93;24.87;;;;;;;0.45;100.00;102352.13;4965776;28;20039;-89
2023/03/03 05:44:11;;;;;;;34.40;24.30;;;;;;;0.50;100.00;102352.66;4978381;28;20046;-88
2023/03/03 05:46:37;;;;;;;36.97;25.57;;;;;;;0.54;100.00;102347.94;4965312;28;20057;-88
2023/03/03 05:49:02;;;;;;;36.87;25.50;;;;;;;0.57;100.00;102353.06;4980183;28;20042;-88
2023/03/03 05:51:27;;;;;;;35.87;25.43;;;;;;;0.57;100.00;102355.75;4985023;28;20051;-88
2023/03/03 05:53:53;;;;;;;38.23;26.47;;;;;;;0.66;100.00;102364.91;4953573;28;20149;-88
2023/03/03 05:56:18;;;;;;;37.77;26.27;;;;;;;0.68;100.00;102352.31;4962896;28;20047;-88
2023/03/03 05:58:43;;;;;;;37.23;26.80;;;;;;;0.68;100.00;102360.31;4982648;28;20065;-88
2023/03/03 06:01:10;;;;;;;36.73;25.63;;;;;;;0.59;100.00;102358.31;4970314;28;20043;-87
2023/03/03 06:03:36;;;;;;;36.70;26.03;;;;;;;0.60;100.00;102359.97;4984178;28;20038;-88
2023/03/03 06:06:01;;;;;;;36.37;25.60;;;;;;;0.52;100.00;102357.00;4983747;28;20730;-81
2023/03/03 06:08:26;;;;;;;35.73;25.10;;;;;;;0.53;100.00;102364.94;4980800;28;20046;-81
2023/03/03 06:10:52;;;;;;;35.93;25.23;;;;;;;0.52;100.00;102362.34;4983396;28;20053;-81
2023/03/03 06:13:17;;;;;;;37.57;25.37;;;;;;;0.50;100.00;102366.00;4981836;28;20113;-81
2023/03/03 06:15:42;;;;;;;38.20;25.80;;;;;;;0.55;100.00;102373.66;4964581;28;20457;-81
2023/03/03 06:18:08;;;;;;;35.90;25.80;;;;;;;0.56;100.00;102379.84;4964899;28;20040;-81
2023/03/03 06:20:34;;;;;;;35.80;25.63;;;;;;;0.59;100.00;102375.13;4964102;28;20042;-81
2023/03/03 06:22:59;;;;;;;36.43;25.53;;;;;;;0.65;100.00;102373.84;4948887;28;20462;-81
2023/03/03 06:25:25;;;;;;;39.53;27.27;;;;;;;0.67;100.00;102378.13;4978137;28;20043;-88
2023/03/03 06:27:51;;;;;;;39.40;26.87;;;;;;;0.70;100.00;102385.06;4963585;28;20038;-88
2023/03/03 06:30:17;;;;;;;38.17;27.33;;;;;;;0.71;100.00;102389.44;4985869;28;20073;-88
2023/03/03 06:32:43;;;;;;;39.33;27.03;;;;;;;0.73;100.00;102392.84;4981615;28;20038;-88
2023/03/03 06:35:09;;;;;;;39.90;27.57;;;;;;;0.75;100.00;102400.72;4987523;28;20353;-88
2023/03/03 06:37:34;;;;;;;38.00;26.43;;;;;;;0.77;100.00;102401.47;4950171;28;20034;-81
2023/03/03 06:39:59;;;;;;;38.60;27.00;;;;;;;0.77;100.00;102398.81;4945980;28;20034;-81
2023/03/03 06:42:25;;;;;;;37.43;26.67;;;;;;;0.76;100.00;102402.44;4946459;28;20479;-81
2023/03/03 06:44:50;;;;;;;36.50;26.47;;;;;;;0.80;100.00;102407.47;4979262;28;20572;-81
2023/03/03 06:47:15;;;;;;;37.80;25.97;;;;;;;0.81;100.00;102413.66;4979714;28;20069;-81
2023/03/03 06:49:41;;;;;;;35.30;24.90;;;;;;;0.84;100.00;102411.63;4980864;28;20182;-81
2023/03/03 06:52:17;;;;;;;36.40;23.87;;;;;;;0.80;100.00;102420.81;4980550;28;20494;-81
2023/03/03 06:54:42;;;;;;;34.13;24.03;;;;;;;0.83;100.00;102425.91;4980567;28;20034;-81
2023/03/03 06:57:19;;;;;;;34.57;24.33;;;;;;;0.88;100.00;102427.41;4964272;28;20301;-81
2023/03/03 06:59:48;;;;;;;33.83;23.50;;;;;;;0.84;100.00;102419.63;4982815;28;20114;-81
2023/03/03 07:02:17;;;;;;;37.40;25.73;;;;;;;0.89;100.00;102419.28;4982005;28;20320;-81
2023/03/03 07:04:44;;;;;;;36.10;25.27;;;;;;;0.95;100.00;102432.19;4983080;28;20408;-81
2023/03/03 07:07:20;;;;;;;37.37;26.03;;;;;;;0.99;100.00;102425.69;4983077;28;20828;-88
2023/03/03 07:09:51;;;;;;;37.67;25.47;;;;;;;0.98;100.00;102425.75;4981912;28;20649;-88
2023/03/03 07:12:21;;;;;;;36.80;25.53;;;;;;;1.01;100.00;102425.56;4984254;28;20808;-88
2023/03/03 07:14:54;;;;;;;38.57;24.47;;;;;;;0.96;100.00;102425.03;4982118;28;20835;-88
2023/03/03 07:17:22;;;;;;;34.30;24.13;;;;;;;0.98;100.00;102426.63;4984482;28;20376;-89
2023/03/03 07:19:48;;;;;;;34.50;24.47;;;;;;;1.10;100.00;102422.25;4979484;28;20282;-88
2023/03/03 07:22:15;;;;;;;35.03;23.67;;;;;;;1.07;100.00;102427.78;4986570;28;20296;-88
2023/03/03 07:24:43;;;;;;;34.73;24.43;;;;;;;1.14;100.00;102437.06;4971324;28;20042;-88
2023/03/03 07:27:20;;;;;;;35.63;25.03;;;;;;;1.15;100.00;102430.75;4985418;28;20298;-88
2023/03/03 07:29:50;;;;;;;35.47;24.40;;;;;;;1.20;100.00;102442.91;4985531;28;20789;-89
2023/03/03 07:32:34;;;;;;;36.73;24.50;;;;;;;1.19;100.00;102447.41;4978745;28;20286;-87
2023/03/03 07:34:59;;;;;;;34.77;23.87;;;;;;;1.15;100.00;102448.59;4978753;28;20290;-89
2023/03/03 07:37:33;;;;;;;33.43;22.63;;;;;;;1.16;100.00;102445.81;4982849;28;20293;-89
2023/03/03 07:39:59;;;;;;;31.48;21.80;;;;;;;1.14;100.00;102444.22;4975944;28;20034;-88
2023/03/03 07:42:32;;;;;;;33.90;22.80;;;;;;;1.14;100.00;102458.44;4980154;28;20050;-88
2023/03/03 07:44:59;;;;;;;31.07;21.57;;;;;;;1.24;100.00;102457.75;4988523;28;20293;-89
2023/03/03 07:47:33;;;;;;;32.03;22.33;;;;;;;1.24;100.00;102461.28;4985541;28;20320;-88
2023/03/03 07:50:06;;;;;;;32.47;21.73;;;;;;;1.32;100.00;102466.09;4983244;28;20848;-88
2023/03/03 07:52:40;;;;;;;32.97;23.10;;;;;;;1.30;100.00;102460.00;4971860;28;20027;-88
2023/03/03 07:55:35;;;;;;;34.03;23.47;;;;;;;1.40;100.00;102461.03;4989357;28;20292;-89
2023/03/03 07:58:13;;;;;;;31.48;22.50;;;;;;;1.38;100.00;102473.63;4987001;28;20284;-89
2023/03/03 08:00:38;;;;;;;33.73;23.30;;;;;;;1.36;100.00;102472.91;4981976;28;20380;-89
2023/03/03 08:03:18;;;;;;;34.17;23.87;;;;;;;1.39;100.00;102475.34;4987548;28;20289;-88
2023/03/03 08:05:47;;;;;;;34.90;24.40;;;;;;;1.23;100.00;102474.75;4987553;28;20039;-88
2023/03/03 08:08:29;;;;;;;36.10;24.90;;;;;;;1.24;100.00;102473.78;4984815;28;20293;-88
2023/03/03 08:10:59;;;;;;;35.27;24.50;;;;;;;1.21;100.00;102476.66;4982838;28;20288;-89
2023/03/03 08:13:36;;;;;;;35.37;23.50;;;;;;;1.15;100.00;102485.97;4984033;28;20662;-88
2023/03/03 08:16:20;;;;;;;33.83;23.43;;;;;;;1.25;100.00;102484.38;4985750;28;20289;-89
2023/03/03 08:18:48;;;;;;;34.20;23.13;;;;;;;1.32;100.00;102487.44;4983876;28;20789;-81
2023/03/03 08:21:24;;;;;;;35.50;23.90;;;;;;;1.38;100.00;102484.31;4984933;28;20300;-81
2023/03/03 08:23:52;;;;;;;34.47;22.93;;;;;;;1.43;100.00;102475.97;4986707;28;20289;-87
2023/03/03 08:26:19;;;;;;;33.43;23.33;;;;;;;1.51;100.00;102485.13;4967393;28;20301;-88
2023/03/03 08:28:45;;;;;;;32.03;21.63;;;;;;;1.61;100.00;102490.66;4983179;28;20304;-81
2023/03/03 08:31:11;;;;;;;31.80;22.37;;;;;;;1.43;100.00;102492.00;4966265;28;21220;-81
2023/03/03 08:33:36;;;;;;;31.33;21.53;;;;;;;1.54;100.00;102499.22;4982399;28;20043;-88
2023/03/03 08:36:01;;;;;;;30.70;21.07;;;;;;;1.57;100.00;102499.03;4989940;28;20286;-81
2023/03/03 08:38:27;;;;;;;28.20;19.13;;;;;;;1.59;100.00;102505.09;4967997;28;20486;-81
2023/03/03 08:40:52;;;;;;;28.13;18.50;;;;;;;1.69;100.00;102500.78;4965258;28;20042;-81
2023/03/03 08:43:20;;;;;;;27.83;18.80;;;;;;;1.73;100.00;102504.06;4984568;28;20076;-81
2023/03/03 08:45:48;;;;;;;29.93;19.37;;;;;;;1.73;100.00;102515.63;4983600;28;20062;-81
2023/03/03 08:48:15;;;;;;;26.80;18.03;;;;;;;1.78;100.00;102512.63;4983057;28;20359;-81
2023/03/03 08:50:41;;;;;;;26.13;17.80;;;;;;;1.81;100.00;102517.72;4966488;28;20373;-81
2023/03/03 08:53:07;;;;;;;27.27;17.20;;;;;;;1.85;100.00;102520.06;4981792;28;20302;-81
2023/03/03 08:55:32;;;;;;;25.13;16.40;;;;;;;1.79;100.00;102509.81;4984062;28;20308;-82
2023/03/03 08:57:58;;;;;;;24.97;16.73;;;;;;;1.73;100.00;102510.28;4982915;28;20035;-81
2023/03/03 09:00:25;;;;;;;24.97;16.60;;;;;;;1.79;100.00;102512.50;4965987;28;20050;-81
2023/03/03 09:02:51;;;;;;;23.93;15.80;;;;;;;1.90;100.00;102518.88;4985504;28;20050;-81
2023/03/03 09:05:18;;;;;;;22.00;14.67;;;;;;;1.93;100.00;102522.19;4984870;28;20035;-81
2023/03/03 09:07:45;;;;;;;21.60;14.07;;;;;;;2.06;100.00;102523.94;4979975;28;20180;-80
2023/03/03 09:10:13;;;;;;;20.67;13.80;;;;;;;2.17;100.00;102524.84;4981158;28;20105;-81
2023/03/03 09:12:41;;;;;;;22.07;14.67;;;;;;;2.21;100.00;102520.13;4982108;28;20042;-81
2023/03/03 09:15:24;;;;;;;22.23;14.57;;;;;;;2.24;100.00;102524.38;4981359;28;20042;-81
2023/03/03 09:17:50;;;;;;;21.00;14.23;;;;;;;2.25;100.00;102524.25;4981628;28;20046;-81
2023/03/03 09:20:21;;;;;;;22.57;14.77;;;;;;;2.32;100.00;102527.34;4965703;28;20124;-81
2023/03/03 09:22:48;;;;;;;22.70;14.37;;;;;;;2.44;100.00;102525.56;4981022;28;20042;-81
2023/03/03 09:25:33;;;;;;;20.70;13.33;;;;;;;2.41;100.00;102518.59;4980506;28;20486;-81
2023/03/03 09:27:59;;;;;;;20.73;13.45;;;;;;;2.45;100.00;102521.88;4980507;28;20500;-80
2023/03/03 09:30:38;;;;;;;22.00;14.03;;;;;;;2.58;100.00;102532.53;4960789;28;20138;-81
2023/03/03 09:33:23;;;;;;;20.30;13.80;;;;;;;2.72;100.00;102523.41;4964288;28;20045;-81
2023/03/03 09:36:04;;;;;;;;;;;;;;;2.91;100.00;102522.84;4981231;28;20473;-81
2023/03/03 09:38:32;;;;;;;19.53;12.70;;;;;;;2.80;100.00;102526.34;4979178;28;19921;-81
2023/03/03 09:41:27;;;;;;;20.20;13.83;;;;;;;2.96;100.00;102542.09;4981031;28;20049;-81
2023/03/03 09:44:16;;;;;;;21.20;13.57;;;;;;;2.96;100.00;102539.41;4980302;28;20478;-81
2023/03/03 09:47:06;;;;;;;19.83;13.43;;;;;;;3.01;100.00;102540.75;4980928;28;20044;-81
2023/03/03 09:49:35;;;;;;;20.50;13.03;;;;;;;3.03;100.00;102536.13;4978804;28;20046;-81
2023/03/03 09:52:39;;;;;;;20.33;13.10;;;;;;;3.14;100.00;102540.66;4979121;28;20046;-81
2023/03/03 09:55:39;;;;;;;21.37;13.03;;;;;;;3.26;100.00;102538.81;4976651;28;20073;-81
2023/03/03 09:58:23;;;;;;;20.47;13.03;;;;;;;3.28;100.00;102536.00;4976721;28;20042;-81
2023/03/03 10:01:24;;;;;;;20.67;13.30;;;;;;;3.48;100.00;102534.41;4978993;28;20078;-81
2023/03/03 10:04:08;;;;;;;20.97;14.17;;;;;;;3.35;100.00;102531.88;4943461;28;20049;-81
2023/03/03 10:06:38;;;;;;;20.23;13.17;;;;;;;3.37;100.00;102545.97;4979612;28;20042;-81
2023/03/03 10:09:18;;;;;;;20.20;12.73;;;;;;;3.42;100.00;102541.13;4978402;28;20097;-81
2023/03/03 10:12:14;;;;;;;19.47;12.63;;;;;;;3.27;100.00;102540.50;4977998;28;20042;-81
2023/03/03 10:14:51;;;;;;;20.50;12.93;;;;;;;3.45;100.00;102540.88;4980036;28;20140;-81
2023/03/03 10:17:48;;;;;;;19.17;11.80;;;;;;;3.55;100.00;102549.88;4978943;28;20052;-81
2023/03/03 10:20:28;;;;;;;21.30;12.67;;;;;;;3.49;100.00;102550.34;4978566;28;20133;-81
2023/03/03 10:23:01;;;;;;;19.43;12.40;;;;;;;3.49;100.00;102549.53;4981573;28;20042;-81
2023/03/03 10:25:49;;;;;;;19.73;13.37;;;;;;;3.67;100.00;102547.16;4979955;28;20038;-81
2023/03/03 10:29:03;;;;;;;21.23;14.00;;;;;;;3.72;100.00;102544.97;4980751;28;20160;-81
2023/03/03 10:31:43;;;;;;;20.93;13.60;;;;;;;3.64;100.00;102539.38;4980228;28;20052;-81
2023/03/03 10:34:50;;;;;;;21.03;13.70;;;;;;;3.86;100.00;102539.34;4977322;28;20096;-81
2023/03/03 10:37:49;;;;;;;19.77;13.23;;;;;;;4.04;100.00;102541.50;4965804;28;20939;-81
2023/03/03 10:40:27;;;;;;;20.20;12.50;;;;;;;4.01;100.00;102542.59;4979994;28;20176;-81
2023/03/03 10:43:01;;;;;;;18.50;12.57;;;;;;;3.92;100.00;102547.84;4981167;28;20057;-81
2023/03/03 10:45:38;;;;;;;19.48;13.00;;;;;;;3.71;100.00;102543.25;4982657;28;20053;-82
2023/03/03 10:48:28;;;;;;;20.57;13.67;;;;;;;3.93;100.00;102544.19;4981458;28;21844;-81
2023/03/03 10:51:07;;;;;;;20.20;13.53;;;;;;;3.82;100.00;102545.94;4976078;28;20151;-81
2023/03/03 10:53:54;;;;;;;21.83;14.30;;;;;;;3.89;100.00;102547.13;4957848;28;20418;-81
2023/03/03 10:56:29;;;;;;;20.73;13.87;;;;;;;3.99;100.00;102543.72;4958528;28;20078;-81
2023/03/03 10:59:37;;;;;;;20.10;12.67;;;;;;;4.07;100.00;102541.25;4960998;28;20038;-80
2023/03/03 11:02:17;;;;;;;19.43;12.87;;;;;;;4.06;100.00;102543.06;4958048;28;20035;-81
2023/03/03 11:05:04;;;;;;;19.10;12.60;;;;;;;4.18;100.00;102538.50;4957148;28;20038;-81
2023/03/03 11:08:14;;;;;;;20.50;12.53;;;;;;;4.32;100.00;102547.25;4958432;28;20062;-81
2023/03/03 11:11:08;;;;;;;17.47;11.63;;;;;;;4.53;100.00;102547.28;4960173;28;20047;-81
2023/03/03 11:13:47;;;;;;;18.20;11.40;;;;;;;4.56;100.00;102545.16;4941895;28;20390;-81
2023/03/03 11:16:27;;;;;;;17.47;11.73;;;;;;;4.58;100.00;102547.72;4958335;28;20186;-81
2023/03/03 11:19:21;;;;;;;18.87;11.67;;;;;;;4.81;100.00;102545.75;4958500;28;20043;-81
2023/03/03 11:22:04;;;;;;;18.40;11.50;;;;;;;4.77;100.00;102538.94;4960854;28;20042;-81
2023/03/03 11:24:51;;;;;;;19.67;11.93;;;;;;;4.77;99.48;102547.00;4959775;28;20030;-81
2023/03/03 11:27:30;;;;;;;17.10;11.30;;;;;;;4.86;100.00;102543.50;4959258;28;20406;-81